createdAt,value
2022-10-03T00:02:04.216Z,10.40
2022-10-03T00:05:13.154Z,10.40
2022-10-03T00:07:58.235Z,10.40
2022-10-03T00:10:45.194Z,10.30
2022-10-03T00:13:22.624Z,10.30
2022-10-03T00:16:21.390Z,10.30
2022-10-03T00:19:22.191Z,10.30
2022-10-03T00:22:06.886Z,10.20
2022-10-03T00:24:53.462Z,10.20
2022-10-03T00:27:46.780Z,10.20
2022-10-03T00:30:29.217Z,10.20
2022-10-03T00:33:22.284Z,10.10
2022-10-03T00:36:09.234Z,10.10
2022-10-03T00:39:09.247Z,10.10
2022-10-03T00:41:56.322Z,10.10
2022-10-03T00:44:43.577Z,10.00
2022-10-03T00:48:08.253Z,10.10
2022-10-03T00:50:47.038Z,10.00
2022-10-03T00:53:31.274Z,10.00
2022-10-03T00:56:07.602Z,10.00
2022-10-03T00:58:56.241Z,10.00
2022-10-03T01:01:35.280Z,10.00
2022-10-03T01:04:39.293Z,10.00
2022-10-03T01:07:35.285Z,9.90
2022-10-03T01:10:38.294Z,9.90
2022-10-03T01:13:23.599Z,9.90
2022-10-03T01:16:18.364Z,9.90
2022-10-03T01:19:36.282Z,9.90
2022-10-03T01:22:20.976Z,9.90
2022-10-03T01:25:17.296Z,9.90
2022-10-03T01:28:28.311Z,9.80
2022-10-03T01:31:02.634Z,9.80
2022-10-03T01:34:06.322Z,9.80
2022-10-03T01:37:06.193Z,9.80
2022-10-03T01:39:53.339Z,9.80
2022-10-03T01:42:57.293Z,9.80
2022-10-03T01:46:02.372Z,9.80
2022-10-03T01:49:13.347Z,9.70
2022-10-03T01:51:52.369Z,9.70
2022-10-03T01:54:46.482Z,9.60
2022-10-03T01:57:40.928Z,9.60
2022-10-03T02:00:28.468Z,9.60
2022-10-03T02:03:00.346Z,9.60
2022-10-03T02:06:07.344Z,9.60
2022-10-03T02:08:50.653Z,9.60
2022-10-03T02:11:38.604Z,9.50
2022-10-03T02:14:31.402Z,9.50
2022-10-03T02:17:38.384Z,9.50
2022-10-03T02:20:27.402Z,9.50
2022-10-03T02:22:57.496Z,9.50
2022-10-03T02:25:47.604Z,9.50
2022-10-03T02:28:28.367Z,9.50
2022-10-03T02:31:20.484Z,9.40
2022-10-03T02:34:15.973Z,9.40
2022-10-03T02:37:04.410Z,9.40
2022-10-03T02:39:50.499Z,9.40
2022-10-03T02:42:41.437Z,9.40
2022-10-03T02:45:26.558Z,9.30
2022-10-03T02:47:59.973Z,9.30
2022-10-03T02:51:06.457Z,9.30
2022-10-03T02:54:10.015Z,9.30
2022-10-03T02:57:02.418Z,9.30
2022-10-03T02:59:50.144Z,9.30
2022-10-03T03:02:52.488Z,9.30
2022-10-03T03:05:43.744Z,9.30
2022-10-03T03:08:43.524Z,9.30
2022-10-03T03:11:29.067Z,9.30
2022-10-03T03:14:25.447Z,9.30
2022-10-03T03:17:15.730Z,9.30
2022-10-03T03:20:26.476Z,9.30
2022-10-03T03:23:03.050Z,9.20
2022-10-03T03:26:12.496Z,9.20
2022-10-03T03:29:05.500Z,9.20
2022-10-03T03:32:09.551Z,9.20
2022-10-03T03:35:14.373Z,9.20
2022-10-03T03:38:00.521Z,9.20
2022-10-03T03:41:10.520Z,9.10
2022-10-03T03:43:56.481Z,9.10
2022-10-03T03:46:50.549Z,9.10
2022-10-03T03:49:29.492Z,9.10
2022-10-03T03:52:05.543Z,9.10
2022-10-03T03:54:58.545Z,9.10
2022-10-03T03:57:42.605Z,9.00
2022-10-03T04:00:29.510Z,9.00
2022-10-03T04:03:46.575Z,9.00
2022-10-03T04:06:57.727Z,9.00
2022-10-03T04:09:36.073Z,9.00
2022-10-03T04:12:31.549Z,9.00
2022-10-03T04:15:19.542Z,8.90
2022-10-03T04:18:35.582Z,8.90
2022-10-03T04:21:27.546Z,8.90
2022-10-03T04:24:03.249Z,8.90
2022-10-03T04:26:49.567Z,8.90
2022-10-03T04:29:56.896Z,8.90
2022-10-03T04:33:15.753Z,8.80
2022-10-03T04:36:06.904Z,8.90
2022-10-03T04:39:07.634Z,8.90
2022-10-03T04:42:12.152Z,8.90
2022-10-03T04:45:25.719Z,8.90
2022-10-03T04:48:06.140Z,8.90
2022-10-03T04:51:07.609Z,8.90
2022-10-03T04:54:11.633Z,8.90
2022-10-03T04:57:07.656Z,8.90
2022-10-03T05:00:00.370Z,8.80
2022-10-03T05:02:39.714Z,8.80
2022-10-03T05:05:37.748Z,8.80
2022-10-03T05:08:31.693Z,8.80
2022-10-03T05:11:12.932Z,8.80
2022-10-03T05:14:00.157Z,8.80
2022-10-03T05:16:58.786Z,8.80
2022-10-03T05:19:54.693Z,8.70
2022-10-03T05:22:40.325Z,8.70
2022-10-03T05:25:38.747Z,8.70
2022-10-03T05:28:17.382Z,8.70
2022-10-03T05:31:18.952Z,8.70
2022-10-03T05:34:01.978Z,8.70
2022-10-03T05:36:56.675Z,8.70
2022-10-03T05:39:48.274Z,8.70
2022-10-03T05:42:24.696Z,8.70
2022-10-03T05:45:08.688Z,8.70
2022-10-03T05:47:56.818Z,8.70
2022-10-03T05:50:36.739Z,8.70
2022-10-03T05:54:09.383Z,8.70
2022-10-03T05:57:23.714Z,8.80
2022-10-03T06:00:08.764Z,8.80
2022-10-03T06:03:01.841Z,8.90
2022-10-03T06:05:46.661Z,9.00
2022-10-03T06:08:38.737Z,9.10
2022-10-03T06:11:39.113Z,9.20
2022-10-03T06:14:11.947Z,9.20
2022-10-03T06:16:47.753Z,9.40
2022-10-03T06:19:20.368Z,9.40
2022-10-03T06:22:16.950Z,9.50
2022-10-03T06:25:21.807Z,9.60
2022-10-03T06:28:32.998Z,9.70
2022-10-03T06:31:44.289Z,9.80
2022-10-03T06:34:32.340Z,9.90
2022-10-03T06:37:35.816Z,10.10
2022-10-03T06:40:29.881Z,10.20
2022-10-03T06:43:16.785Z,10.20
2022-10-03T06:46:20.867Z,10.30
2022-10-03T06:49:12.862Z,10.40
2022-10-03T06:51:45.548Z,10.50
2022-10-03T06:54:58.848Z,10.60
2022-10-03T06:57:51.986Z,10.70
2022-10-03T07:00:31.997Z,10.70
2022-10-03T07:03:30.557Z,10.80
2022-10-03T07:06:19.808Z,10.80
2022-10-03T07:09:30.879Z,10.90
2022-10-03T07:12:14.371Z,11.00
2022-10-03T07:15:09.882Z,11.10
2022-10-03T07:17:52.565Z,11.10
2022-10-03T07:20:57.924Z,11.20
2022-10-03T07:24:00.466Z,11.30
2022-10-03T07:27:04.965Z,11.40
2022-10-03T07:29:46.715Z,11.50
2022-10-03T07:32:54.889Z,11.60
2022-10-03T07:35:59.565Z,11.80
2022-10-03T07:39:10.917Z,11.80
2022-10-03T07:42:14.869Z,11.90
2022-10-03T07:45:14.863Z,12.00
2022-10-03T07:48:06.907Z,12.10
2022-10-03T07:50:51.889Z,12.10
2022-10-03T07:53:49.979Z,12.10
2022-10-03T07:56:38.068Z,12.20
2022-10-03T07:59:18.008Z,12.20
2022-10-03T08:02:03.949Z,12.20
2022-10-03T08:04:40.070Z,12.20
2022-10-03T08:07:45.296Z,12.10
2022-10-03T08:10:40.720Z,12.20
2022-10-03T08:13:39.051Z,12.20
2022-10-03T08:16:52.860Z,12.30
2022-10-03T08:19:45.017Z,12.40
2022-10-03T08:22:25.094Z,12.50
2022-10-03T08:25:17.042Z,12.50
2022-10-03T08:28:09.680Z,12.60
2022-10-03T08:30:58.960Z,12.70
2022-10-03T08:33:32.984Z,12.80
2022-10-03T08:36:13.468Z,12.90
2022-10-03T08:38:52.494Z,13.00
2022-10-03T08:41:42.435Z,13.10
2022-10-03T08:44:30.798Z,13.30
2022-10-03T08:47:09.978Z,13.40
2022-10-03T08:50:14.202Z,13.50
2022-10-03T08:53:03.062Z,13.70
2022-10-03T08:55:50.111Z,13.80
2022-10-03T08:58:54.121Z,13.80
2022-10-03T09:01:57.109Z,13.90
2022-10-03T09:04:54.984Z,14.00
2022-10-03T09:07:43.043Z,14.10
2022-10-03T09:10:31.082Z,14.20
2022-10-03T09:13:22.655Z,14.20
2022-10-03T09:16:18.817Z,14.30
2022-10-03T09:19:23.059Z,14.30
2022-10-03T09:21:50.062Z,14.40
2022-10-03T09:24:26.077Z,14.50
2022-10-03T09:27:14.825Z,14.60
2022-10-03T09:30:21.048Z,14.70
2022-10-03T09:33:46.036Z,14.90
2022-10-03T09:36:41.170Z,14.90
2022-10-03T09:39:29.598Z,15.00
2022-10-03T09:42:22.111Z,15.00
2022-10-03T09:45:15.093Z,15.00
2022-10-03T09:48:07.036Z,15.00
2022-10-03T09:51:21.168Z,15.00
2022-10-03T09:54:25.093Z,15.00
2022-10-03T09:57:27.097Z,15.00
2022-10-03T10:00:34.145Z,15.00
2022-10-03T10:03:31.716Z,15.10
2022-10-03T10:06:11.308Z,15.10
2022-10-03T10:09:32.125Z,15.20
2022-10-03T10:12:31.940Z,15.40
2022-10-03T10:15:20.117Z,15.50
2022-10-03T10:18:02.131Z,15.70
2022-10-03T10:20:56.115Z,15.90
2022-10-03T10:23:38.427Z,16.00
2022-10-03T10:26:21.159Z,16.10
2022-10-03T10:29:02.947Z,16.10
2022-10-03T10:32:16.680Z,16.30
2022-10-03T10:35:17.168Z,16.40
2022-10-03T10:38:05.223Z,16.40
2022-10-03T10:40:43.991Z,16.40
2022-10-03T10:43:42.159Z,16.30
2022-10-03T10:46:38.409Z,16.30
2022-10-03T10:49:46.193Z,16.50
2022-10-03T10:52:31.218Z,16.70
2022-10-03T10:55:23.209Z,16.70
2022-10-03T10:58:27.705Z,16.80
2022-10-03T11:01:14.395Z,16.90
2022-10-03T11:04:25.291Z,16.90
2022-10-03T11:07:08.922Z,17.00
2022-10-03T11:10:17.288Z,17.10
2022-10-03T11:12:44.293Z,17.00
2022-10-03T11:15:43.230Z,17.00
2022-10-03T11:18:15.709Z,17.10
2022-10-03T11:21:37.206Z,17.00
2022-10-03T11:24:10.254Z,16.90
2022-10-03T11:27:23.434Z,17.00
2022-10-03T11:30:30.269Z,17.10
2022-10-03T11:33:34.855Z,17.10
2022-10-03T11:36:35.246Z,17.20
2022-10-03T11:39:07.613Z,17.30
2022-10-03T11:41:55.296Z,17.50
2022-10-03T11:44:31.291Z,17.70
2022-10-03T11:47:15.277Z,18.00
2022-10-03T11:50:12.528Z,18.20
2022-10-03T11:52:58.280Z,18.40
2022-10-03T11:55:37.289Z,18.40
2022-10-03T11:58:25.281Z,18.30
2022-10-03T12:01:18.405Z,18.20
2022-10-03T12:04:17.371Z,18.10
2022-10-03T12:07:17.484Z,18.00
2022-10-03T12:09:58.276Z,18.00
2022-10-03T12:12:44.320Z,18.00
2022-10-03T12:15:36.378Z,18.00
2022-10-03T12:18:27.340Z,18.00
2022-10-03T12:21:35.488Z,18.10
2022-10-03T12:24:30.332Z,18.20
2022-10-03T12:27:15.691Z,18.00
2022-10-03T12:29:53.454Z,18.00
2022-10-03T12:32:45.528Z,17.80
2022-10-03T12:35:24.797Z,17.70
2022-10-03T12:38:16.377Z,17.50
2022-10-03T12:41:25.743Z,17.50
2022-10-03T12:44:14.379Z,17.40
2022-10-03T12:46:51.109Z,17.40
2022-10-03T12:49:27.371Z,17.30
2022-10-03T12:52:03.547Z,17.30
2022-10-03T12:55:00.409Z,17.30
2022-10-03T12:58:01.843Z,17.20
2022-10-03T13:00:56.417Z,17.10
2022-10-03T13:03:55.548Z,17.00
2022-10-03T13:07:04.912Z,16.90
2022-10-03T13:09:56.429Z,16.90
2022-10-03T13:12:49.329Z,16.90
2022-10-03T13:15:48.466Z,16.80
2022-10-03T13:18:27.364Z,16.80
2022-10-03T13:21:44.033Z,16.90
2022-10-03T13:24:16.727Z,16.90
2022-10-03T13:27:39.433Z,17.00
2022-10-03T13:30:17.370Z,17.00
2022-10-03T13:33:40.622Z,17.00
2022-10-03T13:36:38.421Z,17.10
2022-10-03T13:39:32.636Z,17.10
2022-10-03T13:42:25.186Z,17.10
2022-10-03T13:45:05.458Z,17.00
2022-10-03T13:48:05.517Z,16.90
2022-10-03T13:50:45.482Z,16.90
2022-10-03T13:53:41.478Z,16.90
2022-10-03T13:56:33.440Z,16.90
2022-10-03T13:59:47.463Z,16.90
2022-10-03T14:02:41.998Z,16.90
2022-10-03T14:05:33.553Z,17.00
2022-10-03T14:08:12.354Z,17.00
2022-10-03T14:11:08.497Z,16.90
2022-10-03T14:13:52.509Z,16.80
2022-10-03T14:16:34.479Z,16.80
2022-10-03T14:19:33.550Z,16.80
2022-10-03T14:22:09.259Z,16.80
2022-10-03T14:24:57.536Z,16.80
2022-10-03T14:28:10.884Z,16.70
2022-10-03T14:31:14.685Z,16.70
2022-10-03T14:33:51.489Z,16.70
2022-10-03T14:36:53.515Z,16.70
2022-10-03T14:39:41.421Z,16.70
2022-10-03T14:42:57.599Z,16.70
2022-10-03T14:45:36.590Z,16.70
2022-10-03T14:48:14.576Z,16.70
2022-10-03T14:50:42.295Z,16.70
2022-10-03T14:53:22.558Z,16.70
2022-10-03T14:55:52.326Z,16.70
2022-10-03T14:58:35.598Z,16.70
2022-10-03T15:01:42.957Z,16.70
2022-10-03T15:04:34.578Z,16.70
2022-10-03T15:07:10.586Z,16.70
2022-10-03T15:09:40.926Z,16.70
2022-10-03T15:12:30.743Z,16.60
2022-10-03T15:15:31.455Z,16.60
2022-10-03T15:18:09.614Z,16.40
2022-10-03T15:20:45.590Z,16.40
2022-10-03T15:23:48.661Z,16.30
2022-10-03T15:26:19.755Z,16.20
2022-10-03T15:28:57.667Z,16.30
2022-10-03T15:31:30.333Z,16.30
2022-10-03T15:34:05.612Z,16.40
2022-10-03T15:36:37.511Z,16.40
2022-10-03T15:39:14.722Z,16.50
2022-10-03T15:42:01.896Z,16.40
2022-10-03T15:44:45.648Z,16.40
2022-10-03T15:47:17.034Z,16.50
2022-10-03T15:50:13.628Z,16.50
2022-10-03T15:53:35.467Z,16.40
2022-10-03T15:56:21.664Z,16.30
2022-10-03T15:58:57.645Z,16.30
2022-10-03T16:01:29.054Z,16.30
2022-10-03T16:04:08.644Z,16.30
2022-10-03T16:07:04.658Z,16.30
2022-10-03T16:10:10.671Z,16.30
2022-10-03T16:13:07.834Z,16.30
2022-10-03T16:15:57.788Z,16.20
2022-10-03T16:18:45.738Z,16.10
2022-10-03T16:21:25.781Z,16.10
2022-10-03T16:24:03.728Z,15.90
2022-10-03T16:26:35.894Z,15.80
2022-10-03T16:29:25.758Z,15.70
2022-10-03T16:32:07.154Z,15.60
2022-10-03T16:34:44.777Z,15.50
2022-10-03T16:37:31.835Z,15.40
2022-10-03T16:40:12.734Z,15.30
2022-10-03T16:42:51.720Z,15.20
2022-10-03T16:45:34.865Z,15.10
2022-10-03T16:48:35.770Z,15.10
2022-10-03T16:51:15.652Z,15.00
2022-10-03T16:53:51.779Z,15.00
2022-10-03T16:56:30.784Z,14.90
2022-10-03T16:59:09.815Z,14.90
2022-10-03T17:01:51.080Z,14.80
2022-10-03T17:04:31.841Z,14.80
2022-10-03T17:07:19.772Z,14.80
2022-10-03T17:09:51.114Z,14.70
2022-10-03T17:13:03.359Z,14.60
2022-10-03T17:15:38.506Z,14.60
2022-10-03T17:18:47.740Z,14.60
2022-10-03T17:21:34.075Z,14.50
2022-10-03T17:24:03.654Z,14.50
2022-10-03T17:26:44.800Z,14.40
2022-10-03T17:29:20.808Z,14.40
2022-10-03T17:32:23.849Z,14.40
2022-10-03T17:35:23.410Z,14.30
2022-10-03T17:38:47.851Z,14.30
2022-10-03T17:41:33.596Z,14.20
2022-10-03T17:44:10.834Z,14.10
2022-10-03T17:47:04.509Z,14.10
2022-10-03T17:49:58.853Z,14.00
2022-10-03T17:52:33.856Z,14.00
2022-10-03T17:55:04.118Z,14.00
2022-10-03T17:58:01.827Z,13.90
2022-10-03T18:01:03.911Z,13.90
2022-10-03T18:03:55.823Z,13.80
2022-10-03T18:06:45.454Z,13.80
2022-10-03T18:09:21.862Z,13.80
2022-10-03T18:11:56.962Z,13.80
2022-10-03T18:14:40.661Z,13.70
2022-10-03T18:17:22.879Z,13.70
2022-10-03T18:20:08.146Z,13.70
2022-10-03T18:22:49.891Z,13.60
2022-10-03T18:26:02.159Z,13.50
2022-10-03T18:29:10.861Z,13.50
2022-10-03T18:31:51.918Z,13.50
2022-10-03T18:34:36.906Z,13.40
2022-10-03T18:37:37.187Z,13.40
2022-10-03T18:40:20.956Z,13.30
2022-10-03T18:42:50.330Z,13.30
2022-10-03T18:45:27.931Z,13.30
2022-10-03T18:48:08.774Z,13.30
2022-10-03T18:51:02.896Z,13.30
2022-10-03T18:53:39.558Z,13.30
2022-10-03T18:56:17.028Z,13.40
2022-10-03T18:58:56.397Z,13.40
2022-10-03T19:01:42.154Z,13.40
2022-10-03T19:04:20.891Z,13.40
2022-10-03T19:07:00.021Z,13.40
2022-10-03T19:09:38.576Z,13.40
2022-10-03T19:12:27.957Z,13.40
2022-10-03T19:15:17.947Z,13.40
2022-10-03T19:18:10.703Z,13.50
2022-10-03T19:20:45.959Z,13.50
2022-10-03T19:23:27.057Z,13.50
2022-10-03T19:26:03.939Z,13.50
2022-10-03T19:28:34.939Z,13.50
2022-10-03T19:31:21.038Z,13.50
2022-10-03T19:33:57.961Z,13.50
2022-10-03T19:36:30.003Z,13.50
2022-10-03T19:39:05.995Z,13.50
2022-10-03T19:42:00.961Z,13.50
2022-10-03T19:44:29.708Z,13.50
2022-10-03T19:47:19.986Z,13.50
2022-10-03T19:49:53.334Z,13.50
2022-10-03T19:52:34.978Z,13.50
2022-10-03T19:55:27.538Z,13.50
2022-10-03T19:58:23.840Z,13.50
2022-10-03T20:00:53.403Z,13.40
2022-10-03T20:03:39.260Z,13.40
2022-10-03T20:06:45.995Z,13.40
2022-10-03T20:09:35.026Z,13.40
2022-10-03T20:12:12.994Z,13.40
2022-10-03T20:14:50.020Z,13.40
2022-10-03T20:17:24.487Z,13.40
2022-10-03T20:20:27.113Z,13.40
2022-10-03T20:23:02.041Z,13.40
2022-10-03T20:25:39.991Z,13.40
2022-10-03T20:28:22.181Z,13.40
2022-10-03T20:31:00.142Z,13.40
2022-10-03T20:33:30.848Z,13.40
2022-10-03T20:36:27.051Z,13.40
2022-10-03T20:39:03.000Z,13.40
2022-10-03T20:41:48.336Z,13.40
2022-10-03T20:45:02.042Z,13.40
2022-10-03T20:48:03.074Z,13.30
2022-10-03T20:50:53.093Z,13.30
2022-10-03T20:53:33.189Z,13.30
2022-10-03T20:56:04.294Z,13.30
2022-10-03T20:58:43.192Z,13.30
2022-10-03T21:01:20.245Z,13.20
2022-10-03T21:03:54.110Z,13.20
2022-10-03T21:06:53.079Z,13.20
2022-10-03T21:09:41.096Z,13.10
2022-10-03T21:12:25.350Z,13.10
2022-10-03T21:15:08.162Z,13.10
2022-10-03T21:17:36.616Z,13.10
2022-10-03T21:20:22.203Z,13.00
2022-10-03T21:23:08.117Z,13.00
2022-10-03T21:25:37.766Z,13.00
2022-10-03T21:28:12.142Z,13.10
2022-10-03T21:30:49.728Z,13.00
2022-10-03T21:33:32.290Z,13.10
2022-10-03T21:36:10.890Z,13.10
2022-10-03T21:38:49.176Z,13.10
2022-10-03T21:41:38.477Z,13.10
2022-10-03T21:44:36.184Z,13.10
2022-10-03T21:47:21.181Z,13.10
2022-10-03T21:50:09.390Z,13.10
2022-10-03T21:53:00.414Z,13.20
2022-10-03T21:56:00.159Z,13.20
2022-10-03T21:58:34.852Z,13.20
2022-10-03T22:01:11.246Z,13.20
2022-10-03T22:03:48.549Z,13.20
2022-10-03T22:06:35.282Z,13.20
2022-10-03T22:09:05.963Z,13.30
2022-10-03T22:11:42.367Z,13.30
2022-10-03T22:14:44.174Z,13.30
2022-10-03T22:17:41.201Z,13.30
2022-10-03T22:20:32.205Z,13.30
2022-10-03T22:23:07.963Z,13.30
2022-10-03T22:25:45.539Z,13.30
2022-10-03T22:28:53.011Z,13.30
2022-10-03T22:31:37.400Z,13.30
2022-10-03T22:34:26.229Z,13.30
2022-10-03T22:37:00.197Z,13.30
2022-10-03T22:39:29.148Z,13.30
2022-10-03T22:42:08.244Z,13.30
2022-10-03T22:44:40.159Z,13.30
2022-10-03T22:47:30.238Z,13.30
2022-10-03T22:50:08.260Z,13.30
2022-10-03T22:52:42.116Z,13.30
2022-10-03T22:55:20.249Z,13.30
2022-10-03T22:57:54.577Z,13.30
2022-10-03T23:00:35.270Z,13.30
2022-10-03T23:03:23.267Z,13.30
2022-10-03T23:06:33.399Z,13.30
2022-10-03T23:09:30.143Z,13.30
2022-10-03T23:12:04.289Z,13.30
2022-10-03T23:14:36.133Z,13.30
2022-10-03T23:17:28.330Z,13.20
2022-10-03T23:20:14.317Z,13.30
2022-10-03T23:22:50.411Z,13.30
2022-10-03T23:25:23.253Z,13.20
2022-10-03T23:28:11.310Z,13.20
2022-10-03T23:30:47.554Z,13.20
2022-10-03T23:33:24.335Z,13.20
2022-10-03T23:35:51.139Z,13.20
2022-10-03T23:38:40.455Z,13.20
2022-10-03T23:41:13.972Z,13.10
2022-10-03T23:43:56.427Z,13.10
2022-10-03T23:46:25.843Z,13.10
2022-10-03T23:48:56.165Z,13.10
2022-10-03T23:51:41.481Z,13.10
2022-10-03T23:54:18.371Z,13.00
2022-10-03T23:56:48.599Z,13.00
2022-10-03T23:59:22.388Z,13.00
